Time;durP1;ratioP1;P1;durP2;ratioP2;P2;SDS_P1;SDS_P2;PMS_P1;PMS_P2;Temp;Humidity;BMP_temperature;BMP_pressure;BME280_temperature;BME280_humidity;BME280_pressure;Samples;Min_cycle;Max_cycle;Signal;HPM_P1;HPM_P2
2022/09/25 00:00:46;;;;;;;14.93;12.80;;;13.60;1.00;;;;;;5043392;28;20946;-79
2022/09/25 00:03:15;;;;;;;13.87;12.33;;;13.60;1.00;;;;;;5044411;28;20487;-78
2022/09/25 00:05:44;;;;;;;17.20;12.67;;;13.60;1.00;;;;;;5043795;28;20469;-78
2022/09/25 00:08:12;;;;;;;13.93;12.00;;;13.70;1.00;;;;;;5016744;28;20416;-77
2022/09/25 00:10:44;;;;;;;12.10;10.80;;;13.70;1.00;;;;;;5044109;28;20480;-78
2022/09/25 00:13:13;;;;;;;11.83;10.60;;;13.70;1.00;;;;;;5046218;28;20449;-77
2022/09/25 00:15:48;;;;;;;12.50;10.63;;;13.80;1.00;;;;;;5036312;28;20464;-78
2022/09/25 00:18:15;;;;;;;13.27;11.53;;;13.80;1.00;;;;;;5047657;28;20445;-78
2022/09/25 00:20:41;;;;;;;11.33;10.13;;;13.80;1.00;;;;;;5045099;28;20444;-79
2022/09/25 00:23:08;;;;;;;13.23;11.40;;;13.90;1.00;;;;;;5046775;28;20619;-77
2022/09/25 00:25:35;;;;;;;12.80;10.93;;;13.90;1.00;;;;;;5049327;28;20469;-75
2022/09/25 00:28:04;;;;;;;13.47;12.07;;;13.90;1.00;;;;;;5045053;28;20445;-76
2022/09/25 00:30:32;;;;;;;11.53;10.33;;;13.90;1.00;;;;;;5046504;28;20468;-78
2022/09/25 00:32:59;;;;;;;12.20;10.40;;;13.90;1.00;;;;;;5048781;28;20465;-77
2022/09/25 00:35:26;;;;;;;12.00;10.50;;;13.90;1.00;;;;;;5048823;28;20466;-77
2022/09/25 00:37:53;;;;;;;11.50;10.30;;;13.90;1.00;;;;;;5043716;28;21051;-78
2022/09/25 00:40:23;;;;;;;12.07;10.00;;;13.90;1.00;;;;;;5050024;28;20604;-79
2022/09/25 00:42:52;;;;;;;11.53;9.33;;;13.90;1.00;;;;;;5043676;28;21053;-77
2022/09/25 00:45:21;;;;;;;11.97;10.20;;;13.90;1.00;;;;;;5048140;28;20471;-79
2022/09/25 00:47:55;;;;;;;11.43;9.77;;;13.80;1.00;;;;;;5046420;28;20822;-76
2022/09/25 00:50:32;;;;;;;11.17;9.53;;;13.70;1.00;;;;;;5046114;28;20468;-78
2022/09/25 00:53:03;;;;;;;12.57;10.17;;;13.70;1.00;;;;;;5047444;28;20897;-77
2022/09/25 00:55:32;;;;;;;10.70;9.43;;;13.70;1.00;;;;;;5046917;28;20465;-78
2022/09/25 00:58:06;;;;;;;11.73;10.17;;;13.70;1.00;;;;;;5044284;28;20476;-78
2022/09/25 01:00:36;;;;;;;11.10;9.53;;;13.70;1.00;;;;;;5045153;28;20479;-77
2022/09/25 01:03:04;;;;;;;11.13;9.90;;;13.70;1.00;;;;;;5046353;28;20899;-77
2022/09/25 01:05:33;;;;;;;11.37;10.17;;;13.70;1.00;;;;;;5044581;28;20463;-76
2022/09/25 01:08:03;;;;;;;9.90;8.80;;;13.70;1.00;;;;;;5045105;28;20468;-78
2022/09/25 01:10:30;;;;;;;11.80;10.23;;;13.70;1.00;;;;;;5047405;28;20476;-76
2022/09/25 01:13:00;;;;;;;11.60;9.90;;;13.70;1.00;;;;;;5043859;28;20492;-77
2022/09/25 01:15:36;;;;;;;10.30;9.23;;;13.70;1.00;;;;;;5042422;28;20479;-78
2022/09/25 01:18:15;;;;;;;10.70;9.60;;;13.70;1.00;;;;;;5043454;28;21105;-79
2022/09/25 01:21:13;;;;;;;11.00;9.80;;;13.70;1.00;;;;;;5041729;28;21241;-79
2022/09/25 01:24:04;;;;;;;10.90;9.67;;;13.60;1.00;;;;;;5032769;28;20446;-77
2022/09/25 01:26:55;;;;;;;10.67;9.20;;;13.70;1.00;;;;;;5042465;28;20926;-78
2022/09/25 01:29:28;;;;;;;11.27;9.40;;;13.60;1.00;;;;;;5042173;28;20512;-77
2022/09/25 01:32:02;;;;;;;10.30;9.30;;;13.60;1.00;;;;;;5041823;28;20934;-77
2022/09/25 01:34:37;;;;;;;11.47;9.40;;;13.70;1.00;;;;;;5041232;28;20484;-76
2022/09/25 01:37:10;;;;;;;11.73;9.80;;;13.70;1.00;;;;;;5040680;28;20454;-78
2022/09/25 01:39:43;;;;;;;10.67;8.63;;;13.80;1.00;;;;;;5044474;28;20556;-77
2022/09/25 01:42:18;;;;;;;12.00;10.40;;;13.80;1.00;;;;;;5044184;28;21316;-76
2022/09/25 01:44:53;;;;;;;10.60;8.90;;;13.80;1.00;;;;;;5042463;28;20467;-76
2022/09/25 01:47:24;;;;;;;10.30;9.20;;;13.80;1.00;;;;;;5044540;28;21712;-77
2022/09/25 01:49:55;;;;;;;10.80;9.37;;;13.80;1.00;;;;;;5041098;28;20464;-77
2022/09/25 01:52:26;;;;;;;11.00;8.60;;;13.80;1.00;;;;;;5042736;28;20445;-79
2022/09/25 01:54:59;;;;;;;10.47;9.37;;;13.70;1.00;;;;;;5042712;28;20944;-78
2022/09/25 01:57:33;;;;;;;11.60;9.80;;;13.70;1.00;;;;;;5045826;28;20851;-80
2022/09/25 02:00:08;;;;;;;12.10;9.17;;;13.70;1.00;;;;;;5042641;28;20513;-78
2022/09/25 02:02:42;;;;;;;9.73;8.60;;;13.70;1.00;;;;;;5043083;28;20483;-79
2022/09/25 02:05:14;;;;;;;9.77;8.77;;;13.70;1.00;;;;;;5040470;28;20929;-78
2022/09/25 02:07:47;;;;;;;9.73;8.13;;;13.70;1.00;;;;;;5042422;28;20514;-77
2022/09/25 02:10:17;;;;;;;9.70;8.27;;;13.80;1.00;;;;;;5045550;28;20459;-76
2022/09/25 02:12:51;;;;;;;10.13;8.53;;;13.80;1.00;;;;;;5046665;28;21245;-78
2022/09/25 02:15:23;;;;;;;9.97;8.40;;;13.80;1.00;;;;;;5046461;28;20464;-77
2022/09/25 02:20:42;;;;;;;10.67;8.87;;;13.70;1.00;;;;;;5041144;28;20465;-78
2022/09/25 02:23:18;;;;;;;10.17;8.70;;;13.80;1.00;;;;;;5045866;28;21050;-77
2022/09/25 02:25:48;;;;;;;10.83;8.83;;;13.80;1.00;;;;;;5044419;28;20453;-78
2022/09/25 02:28:17;;;;;;;12.60;8.87;;;13.80;1.00;;;;;;5046688;28;20500;-78
2022/09/25 02:30:49;;;;;;;10.43;8.50;;;13.80;1.00;;;;;;5043914;28;20948;-78
2022/09/25 02:33:15;;;;;;;11.17;9.07;;;13.80;1.00;;;;;;5042935;28;20461;-77
2022/09/25 02:35:43;;;;;;;10.87;8.70;;;13.80;1.00;;;;;;5045232;28;20452;-76
2022/09/25 02:38:10;;;;;;;10.50;8.40;;;13.80;1.00;;;;;;5045296;28;20475;-78
2022/09/25 02:40:45;;;;;;;10.30;9.20;;;13.80;1.00;;;;;;5046485;28;20461;-76
2022/09/25 02:43:26;;;;;;;10.40;8.53;;;13.80;1.00;;;;;;5046184;28;20448;-78
2022/09/25 02:46:07;;;;;;;11.93;9.03;;;13.80;1.00;;;;;;5046298;28;20466;-77
2022/09/25 02:48:45;;;;;;;10.90;9.23;;;13.80;1.00;;;;;;5044973;28;20542;-78
2022/09/25 02:51:19;;;;;;;11.23;8.77;;;13.70;1.00;;;;;;5045200;28;20475;-77
2022/09/25 02:53:52;;;;;;;11.53;9.27;;;13.80;1.00;;;;;;5034114;28;20495;-77
2022/09/25 02:56:28;;;;;;;10.47;9.37;;;13.70;1.00;;;;;;5045297;28;20452;-79
2022/09/25 02:58:59;;;;;;;11.80;9.77;;;13.60;1.00;;;;;;5038302;28;20470;-77
2022/09/25 03:01:31;;;;;;;11.37;10.00;;;13.60;1.00;;;;;;5042655;28;20429;-76
2022/09/25 03:04:00;;;;;;;10.90;8.83;;;13.70;1.00;;;;;;5046409;28;20479;-77
2022/09/25 03:06:30;;;;;;;10.20;9.10;;;13.60;1.00;;;;;;5045301;28;20501;-79
2022/09/25 03:08:57;;;;;;;11.37;9.77;;;13.70;1.00;;;;;;5041376;28;20479;-78
2022/09/25 03:11:26;;;;;;;10.90;9.07;;;13.60;1.00;;;;;;5044442;28;20496;-80
2022/09/25 03:13:57;;;;;;;10.77;9.40;;;13.70;1.00;;;;;;5040165;28;20551;-78
2022/09/25 03:16:34;;;;;;;13.03;9.50;;;13.70;1.00;;;;;;5040794;28;21468;-77
2022/09/25 03:19:01;;;;;;;14.30;10.47;;;13.60;1.00;;;;;;5035221;28;20465;-78
2022/09/25 03:21:28;;;;;;;12.20;10.13;;;13.60;1.00;;;;;;5044636;28;20996;-78
2022/09/25 03:23:57;;;;;;;12.23;9.60;;;13.60;1.00;;;;;;5044661;28;20455;-76
2022/09/25 03:26:24;;;;;;;11.03;9.93;;;13.60;1.00;;;;;;5049841;28;20437;-77
2022/09/25 03:28:52;;;;;;;10.77;9.67;;;13.50;1.00;;;;;;5044472;28;20522;-77
2022/09/25 03:31:19;;;;;;;11.67;9.80;;;13.50;1.00;;;;;;5045312;28;20492;-77
2022/09/25 03:33:47;;;;;;;11.47;10.23;;;13.50;1.00;;;;;;5042812;28;20476;-77
2022/09/25 03:36:17;;;;;;;11.60;10.00;;;13.40;1.00;;;;;;5044860;28;20490;-79
2022/09/25 03:38:45;;;;;;;11.53;10.33;;;13.40;1.00;;;;;;5047872;28;20464;-78
2022/09/25 03:41:14;;;;;;;11.57;9.80;;;13.40;1.00;;;;;;5041624;28;20449;-78
2022/09/25 03:43:42;;;;;;;11.73;10.07;;;13.30;1.00;;;;;;5042834;28;20546;-78
2022/09/25 03:46:13;;;;;;;12.50;10.87;;;13.20;1.00;;;;;;5043433;28;20445;-77
2022/09/25 03:48:43;;;;;;;12.53;11.27;;;13.30;1.00;;;;;;5042012;28;20968;-78
2022/09/25 03:51:11;;;;;;;11.90;10.37;;;13.20;1.00;;;;;;5043894;28;20467;-77
2022/09/25 03:53:43;;;;;;;11.77;10.57;;;13.30;1.00;;;;;;5044907;28;20479;-79
2022/09/25 03:56:15;;;;;;;15.93;11.70;;;13.30;1.00;;;;;;5042095;28;20467;-80
2022/09/25 03:58:45;;;;;;;11.40;10.20;;;13.20;1.00;;;;;;5048331;28;20546;-77
2022/09/25 04:01:14;;;;;;;14.30;10.77;;;13.30;1.00;;;;;;5046702;28;20472;-79
2022/09/25 04:03:46;;;;;;;11.57;10.00;;;13.30;1.00;;;;;;5043906;28;20470;-79
2022/09/25 04:06:18;;;;;;;11.97;10.67;;;13.30;1.00;;;;;;5044553;28;21184;-77
2022/09/25 04:08:47;;;;;;;11.23;9.70;;;13.40;1.00;;;;;;5045628;28;20525;-78
2022/09/25 04:11:14;;;;;;;12.73;11.40;;;13.40;1.00;;;;;;5043888;28;20424;-76
2022/09/25 04:13:43;;;;;;;11.53;10.33;;;13.40;1.00;;;;;;5046987;28;21338;-79
2022/09/25 04:16:14;;;;;;;14.40;11.00;;;13.40;1.00;;;;;;5029813;28;20459;-79
2022/09/25 04:18:44;;;;;;;12.40;11.10;;;13.40;1.00;;;;;;5049389;28;20447;-78
2022/09/25 04:21:12;;;;;;;11.53;10.33;;;13.40;1.00;;;;;;5044528;28;20460;-79
2022/09/25 04:24:46;;;;;;;13.13;11.63;;;13.30;1.00;;;;;;5048099;28;20492;-76
2022/09/25 04:26:30;;;;;;;13.00;10.20;;;13.30;1.00;;;;;;5044787;28;20444;-79
2022/09/25 04:29:00;;;;;;;12.40;11.10;;;13.30;1.00;;;;;;5044279;28;20468;-79
2022/09/25 04:31:27;;;;;;;13.60;10.80;;;13.30;1.00;;;;;;5044073;28;20540;-80
2022/09/25 04:33:56;;;;;;;13.27;11.30;;;13.30;1.00;;;;;;5029185;28;20476;-81
2022/09/25 04:36:24;;;;;;;18.87;11.67;;;13.30;1.00;;;;;;5046564;28;20460;-78
2022/09/25 04:38:52;;;;;;;13.13;11.77;;;13.30;1.00;;;;;;5044439;28;20460;-78
2022/09/25 04:41:19;;;;;;;12.63;10.87;;;13.20;1.00;;;;;;5046702;28;20956;-76
2022/09/25 04:43:46;;;;;;;14.57;13.03;;;13.10;1.00;;;;;;5046509;28;20475;-77
2022/09/25 04:46:14;;;;;;;13.87;12.23;;;13.00;1.00;;;;;;5046464;28;20472;-78
2022/09/25 04:48:44;;;;;;;12.47;11.17;;;13.00;1.00;;;;;;5046800;28;20465;-78
2022/09/25 04:51:11;;;;;;;12.87;11.53;;;12.90;1.00;;;;;;5045467;28;21006;-77
2022/09/25 04:53:40;;;;;;;13.03;11.43;;;12.90;1.00;;;;;;5046464;28;20483;-78
2022/09/25 04:56:10;;;;;;;12.80;11.37;;;13.00;1.00;;;;;;5033852;28;20520;-77
2022/09/25 04:58:37;;;;;;;13.20;11.70;;;13.00;1.00;;;;;;5043910;28;20465;-79
2022/09/25 05:01:08;;;;;;;13.83;12.33;;;13.10;1.00;;;;;;5048080;28;20447;-78
2022/09/25 05:03:36;;;;;;;13.27;11.93;;;13.10;1.00;;;;;;5029306;28;20642;-77
2022/09/25 05:06:03;;;;;;;14.50;12.57;;;13.10;1.00;;;;;;5044318;28;20441;-78
2022/09/25 05:08:31;;;;;;;15.30;12.77;;;13.10;1.00;;;;;;5050432;28;20468;-79
2022/09/25 05:10:58;;;;;;;14.47;12.93;;;13.10;1.00;;;;;;5041569;28;20456;-77
2022/09/25 05:13:26;;;;;;;15.17;13.40;;;12.90;1.00;;;;;;5037585;28;20493;-78
2022/09/25 05:15:57;;;;;;;13.70;12.30;;;12.90;1.00;;;;;;5044898;28;21321;-76
2022/09/25 05:18:24;;;;;;;14.50;12.90;;;12.90;1.00;;;;;;5045831;28;20480;-78
2022/09/25 05:20:52;;;;;;;14.27;12.53;;;13.00;1.00;;;;;;5045153;28;20413;-79
2022/09/25 05:23:19;;;;;;;14.73;12.93;;;13.00;1.00;;;;;;5046229;28;20440;-77
2022/09/25 05:25:53;;;;;;;13.90;12.50;;;13.10;1.00;;;;;;5045103;28;20484;-78
2022/09/25 05:28:23;;;;;;;13.50;12.10;;;13.10;1.00;;;;;;5044245;28;20483;-79
2022/09/25 05:31:01;;;;;;;14.93;13.03;;;13.10;1.00;;;;;;5038281;28;21074;-78
2022/09/25 05:33:31;;;;;;;15.07;13.57;;;13.20;1.00;;;;;;5027043;28;20843;-77
2022/09/25 05:36:01;;;;;;;23.53;18.30;;;13.20;1.00;;;;;;5044831;28;20468;-78
2022/09/25 05:38:29;;;;;;;17.37;13.80;;;13.20;1.00;;;;;;5043422;28;20476;-77
2022/09/25 05:41:03;;;;;;;16.80;14.00;;;13.20;1.00;;;;;;5045106;28;20468;-79
2022/09/25 05:43:32;;;;;;;15.67;13.67;;;13.20;1.00;;;;;;5046576;28;21031;-78
2022/09/25 05:46:00;;;;;;;14.40;13.00;;;13.20;1.00;;;;;;5030422;28;21229;-77
2022/09/25 05:48:28;;;;;;;14.60;13.00;;;13.20;1.00;;;;;;5044879;28;20971;-77
2022/09/25 05:50:56;;;;;;;17.20;13.57;;;13.30;1.00;;;;;;5044331;28;20460;-77
2022/09/25 05:53:23;;;;;;;14.63;13.07;;;13.20;1.00;;;;;;5043868;28;20476;-78
2022/09/25 05:55:50;;;;;;;15.67;13.97;;;13.30;1.00;;;;;;5042421;28;20531;-77
2022/09/25 05:58:18;;;;;;;14.87;13.37;;;13.30;1.00;;;;;;5044958;28;20466;-77
2022/09/25 06:00:46;;;;;;;15.33;13.27;;;13.20;1.00;;;;;;5039556;28;20911;-80
2022/09/25 06:03:15;;;;;;;14.83;13.13;;;13.20;1.00;;;;;;5041636;28;20472;-82
2022/09/25 06:05:43;;;;;;;16.67;14.37;;;13.20;1.00;;;;;;5044304;28;20460;-79
2022/09/25 06:08:10;;;;;;;15.53;13.73;;;13.20;1.00;;;;;;5046425;28;20518;-79
2022/09/25 06:10:37;;;;;;;15.67;14.00;;;13.10;1.00;;;;;;5042838;28;20444;-78
2022/09/25 06:13:05;;;;;;;14.97;13.13;;;13.10;1.00;;;;;;5043399;28;20486;-79
2022/09/25 06:15:36;;;;;;;15.43;13.87;;;13.00;1.00;;;;;;5046420;28;20472;-79
2022/09/25 06:18:05;;;;;;;17.97;13.43;;;13.10;1.00;;;;;;5044413;28;21270;-78
2022/09/25 06:20:35;;;;;;;16.00;13.70;;;13.10;1.00;;;;;;5043601;28;20460;-77
2022/09/25 06:23:02;;;;;;;15.07;13.57;;;13.10;1.00;;;;;;5045061;28;20492;-79
2022/09/25 06:25:32;;;;;;;16.03;14.00;;;13.10;1.00;;;;;;5044921;28;21221;-79
2022/09/25 06:28:00;;;;;;;14.77;13.17;;;13.20;1.00;;;;;;5040267;28;20610;-78
2022/09/25 06:30:33;;;;;;;16.40;14.70;;;13.20;1.00;;;;;;5042226;28;20475;-74
2022/09/25 06:33:00;;;;;;;16.27;14.53;;;13.30;1.00;;;;;;5043009;28;20530;-75
2022/09/25 06:35:29;;;;;;;15.77;13.70;;;13.40;1.00;;;;;;5045227;28;20452;-81
2022/09/25 06:37:58;;;;;;;16.27;14.57;;;13.50;1.00;;;;;;5036505;28;20575;-77
2022/09/25 06:40:26;;;;;;;14.83;13.33;;;13.60;1.00;;;;;;5043957;28;20457;-75
2022/09/25 06:43:00;;;;;;;22.50;20.10;;;13.70;1.00;;;;;;5045158;28;20991;-75
2022/09/25 06:45:28;;;;;;;15.67;14.07;;;13.90;1.00;;;;;;5045240;28;20591;-77
2022/09/25 06:48:00;;;;;;;15.87;13.53;;;14.10;1.00;;;;;;5041622;28;20476;-75
2022/09/25 06:50:31;;;;;;;15.47;13.83;;;14.30;1.00;;;;;;5046117;28;20464;-78
2022/09/25 06:53:01;;;;;;;14.70;12.73;;;14.30;1.00;;;;;;5042492;28;20495;-79
2022/09/25 06:55:31;;;;;;;15.97;13.20;;;14.30;1.00;;;;;;5043835;28;20502;-77
2022/09/25 06:57:58;;;;;;;13.97;12.53;;;14.40;1.00;;;;;;5046161;28;20526;-76
2022/09/25 07:00:27;;;;;;;15.80;14.20;;;14.50;1.00;;;;;;5043867;28;20491;-77
2022/09/25 07:05:38;;;;;;;15.37;13.77;;;14.60;1.00;;;;;;5045818;28;20475;-78
2022/09/25 07:08:07;;;;;;;16.80;13.33;;;14.70;1.00;;;;;;5046512;28;20457;-76
2022/09/25 07:10:35;;;;;;;16.50;14.00;;;14.70;1.00;;;;;;5046853;28;20539;-76
2022/09/25 07:13:03;;;;;;;16.17;14.60;;;14.80;1.00;;;;;;5043561;28;22469;-78
2022/09/25 07:15:34;;;;;;;16.70;15.00;;;14.80;1.00;;;;;;5023044;28;20448;-77
2022/09/25 07:18:01;;;;;;;15.57;13.47;;;14.60;1.00;;;;;;5040509;28;20542;-78
2022/09/25 07:20:28;;;;;;;18.17;14.50;;;14.60;1.00;;;;;;5043227;28;20464;-77
2022/09/25 07:22:59;;;;;;;16.80;14.63;;;14.70;1.00;;;;;;5042087;28;20468;-77
2022/09/25 07:25:27;;;;;;;16.40;14.77;;;14.80;1.00;;;;;;5038599;28;20452;-76
2022/09/25 07:27:55;;;;;;;15.80;14.10;;;14.70;1.00;;;;;;5041383;28;20456;-78
2022/09/25 07:30:22;;;;;;;15.73;14.03;;;14.60;1.00;;;;;;5043539;28;20559;-77
2022/09/25 07:32:49;;;;;;;17.03;15.33;;;14.70;1.00;;;;;;5025635;28;20472;-79
2022/09/25 07:35:17;;;;;;;17.00;15.30;;;14.80;1.00;;;;;;5046815;28;20456;-78
2022/09/25 07:37:46;;;;;;;17.30;14.93;;;14.80;1.00;;;;;;5046191;28;20461;-77
2022/09/25 07:40:13;;;;;;;16.90;15.20;;;14.70;1.00;;;;;;5047034;28;20492;-77
2022/09/25 07:42:42;;;;;;;16.73;15.03;;;14.80;1.00;;;;;;5032023;28;20487;-77
2022/09/25 07:45:10;;;;;;;17.57;15.50;;;14.90;1.00;;;;;;5041665;28;20539;-78
2022/09/25 07:47:36;;;;;;;17.23;15.53;;;15.10;1.00;;;;;;5045088;28;20464;-77
2022/09/25 07:50:05;;;;;;;18.33;15.13;;;15.30;1.00;;;;;;5044760;28;20831;-78
2022/09/25 07:52:31;;;;;;;16.40;14.73;;;15.60;1.00;;;;;;5044769;28;20543;-77
2022/09/25 07:54:58;;;;;;;15.30;13.70;;;15.60;1.00;;;;;;5030030;28;20441;-77
2022/09/25 07:57:28;;;;;;;18.00;16.30;;;15.70;1.00;;;;;;5045820;28;20911;-76
2022/09/25 07:59:56;;;;;;;15.47;13.97;;;16.00;1.00;;;;;;5038745;28;20424;-78
2022/09/25 08:02:25;;;;;;;17.00;15.17;;;16.10;1.00;;;;;;5037458;28;20471;-77
2022/09/25 08:04:53;;;;;;;17.80;14.97;;;16.30;1.00;;;;;;5041750;28;20467;-76
2022/09/25 08:07:21;;;;;;;16.30;14.33;;;16.40;1.00;;;;;;5044136;28;20553;-79
2022/09/25 08:09:48;;;;;;;15.30;13.90;;;16.40;1.00;;;;;;5040557;28;20452;-81
2022/09/25 08:12:15;;;;;;;16.20;14.70;;;16.50;1.00;;;;;;5042041;28;20464;-76
2022/09/25 08:14:42;;;;;;;15.70;13.90;;;16.60;1.00;;;;;;5046933;28;20985;-76
2022/09/25 08:17:10;;;;;;;15.30;13.80;;;16.60;1.00;;;;;;5036998;28;20464;-77
2022/09/25 08:19:38;;;;;;;15.07;13.57;;;16.70;1.00;;;;;;5040321;28;21303;-77
2022/09/25 08:22:05;;;;;;;15.47;13.87;;;16.70;1.00;;;;;;5036326;28;20899;-78
2022/09/25 08:24:33;;;;;;;15.30;13.80;;;16.90;1.00;;;;;;5042135;28;20471;-77
2022/09/25 08:27:03;;;;;;;17.97;16.07;;;17.00;1.00;;;;;;5042350;28;20547;-78
2022/09/25 08:29:30;;;;;;;16.07;14.50;;;17.00;1.00;;;;;;5044943;28;20472;-77
2022/09/25 08:31:57;;;;;;;15.63;14.03;;;16.90;1.00;;;;;;5041689;28;20444;-78
2022/09/25 08:34:26;;;;;;;17.27;15.57;;;17.00;1.00;;;;;;5045884;28;20456;-79
2022/09/25 08:36:53;;;;;;;16.87;15.07;;;17.30;1.00;;;;;;5042323;28;20523;-77
2022/09/25 08:39:20;;;;;;;16.60;14.80;;;17.50;1.00;;;;;;5017634;28;20428;-81
2022/09/25 08:41:49;;;;;;;15.40;13.77;;;17.50;1.00;;;;;;5039311;28;20478;-76
2022/09/25 08:44:26;;;;;;;15.43;13.93;;;17.40;1.00;;;;;;5037338;28;20464;-76
2022/09/25 08:49:47;;;;;;;15.40;13.90;;;17.30;1.00;;;;;;5049120;28;20469;-79
2022/09/25 08:52:21;;;;;;;17.33;15.70;;;17.30;1.00;;;;;;5050311;28;20456;-77
2022/09/25 08:54:49;;;;;;;16.00;14.40;;;17.30;1.00;;;;;;5032550;28;20471;-76
2022/09/25 08:57:27;;;;;;;16.03;14.40;;;17.10;1.00;;;;;;5042419;28;20432;-76
2022/09/25 09:00:02;;;;;;;15.03;13.63;;;17.10;1.00;;;;;;5043496;28;20572;-78
2022/09/25 09:02:48;;;;;;;15.13;13.60;;;17.20;1.00;;;;;;5034829;28;20520;-78
2022/09/25 09:05:47;;;;;;;15.50;14.00;;;17.30;1.00;;;;;;5051079;28;20514;-78
2022/09/25 09:08:24;;;;;;;17.30;15.70;;;17.50;1.00;;;;;;5043848;28;20447;-78
2022/09/25 09:10:55;;;;;;;18.00;15.33;;;17.70;1.00;;;;;;5042380;28;20460;-77
2022/09/25 09:13:33;;;;;;;14.90;13.50;;;17.90;1.00;;;;;;5043291;28;20459;-78
2022/09/25 09:16:41;;;;;;;14.87;13.30;;;18.20;1.00;;;;;;5037833;28;20461;-75
2022/09/25 09:19:11;;;;;;;14.97;13.57;;;18.40;1.00;;;;;;5013026;28;20439;-77
2022/09/25 09:24:33;;;;;;;15.87;14.33;;;18.70;1.00;;;;;;5043089;28;21010;-78
2022/09/25 09:27:28;;;;;;;15.57;14.07;;;19.10;1.00;;;;;;5041368;28;20472;-76
2022/09/25 09:30:12;;;;;;;14.40;13.00;;;21.10;1.00;;;;;;5045166;28;20495;-77
2022/09/25 09:33:28;;;;;;;13.60;12.20;;;23.60;1.00;;;;;;5043539;28;20461;-78
2022/09/25 09:36:08;;;;;;;14.43;13.20;;;24.60;1.00;;;;;;5033004;28;20491;-79
2022/09/25 09:38:47;;;;;;;13.60;12.40;;;24.00;1.00;;;;;;5042045;28;20425;-78
2022/09/25 09:41:27;;;;;;;14.07;12.90;;;23.10;1.00;;;;;;5058062;28;20436;-79
2022/09/25 09:44:26;;;;;;;13.33;12.23;;;22.60;1.00;;;;;;5036949;28;20447;-82
2022/09/25 09:47:26;;;;;;;14.43;13.10;;;22.60;1.00;;;;;;5054908;28;20440;-79
2022/09/25 09:50:00;;;;;;;14.77;13.33;;;22.40;1.00;;;;;;5053930;28;20519;-81
2022/09/25 09:52:35;;;;;;;14.47;13.17;;;22.20;1.00;;;;;;5047141;28;20561;-79
2022/09/25 09:55:19;;;;;;;14.13;12.90;;;21.80;1.00;;;;;;5049279;28;21006;-80
2022/09/25 09:57:51;;;;;;;12.80;11.70;;;21.60;1.00;;;;;;5040544;28;20533;-79
2022/09/25 10:00:20;;;;;;;13.63;12.43;;;21.50;1.00;;;;;;5044899;28;20462;-78
2022/09/25 10:02:52;;;;;;;12.90;11.80;;;21.70;1.00;;;;;;5044048;28;20476;-80
2022/09/25 10:05:24;;;;;;;15.20;13.70;;;21.80;1.00;;;;;;5046268;28;20454;-80
2022/09/25 10:07:52;;;;;;;12.70;11.40;;;22.20;1.00;;;;;;5042343;28;20480;-78
2022/09/25 10:10:22;;;;;;;14.40;13.20;;;22.60;1.00;;;;;;5044537;28;20431;-77
2022/09/25 10:12:51;;;;;;;14.23;12.93;;;23.40;1.00;;;;;;5043917;28;20466;-78
2022/09/25 10:15:27;;;;;;;13.10;12.00;;;24.00;1.00;;;;;;5032566;28;20467;-79
2022/09/25 10:17:57;;;;;;;16.33;14.93;;;24.30;1.00;;;;;;5046036;28;20429;-78
2022/09/25 10:20:26;;;;;;;13.87;12.67;;;24.10;1.00;;;;;;5047201;28;20440;-80
2022/09/25 10:22:56;;;;;;;13.93;12.67;;;23.50;1.00;;;;;;5045796;28;20491;-79
2022/09/25 10:25:39;;;;;;;12.27;11.27;;;23.60;1.00;;;;;;5042113;28;20485;-81
2022/09/25 10:28:23;;;;;;;13.60;12.50;;;23.60;1.00;;;;;;5043709;28;20479;-78
2022/09/25 10:30:51;;;;;;;14.20;12.90;;;23.60;1.00;;;;;;5043709;28;20560;-78
2022/09/25 10:33:24;;;;;;;13.03;11.73;;;23.10;1.00;;;;;;5041702;28;22112;-80
2022/09/25 10:35:53;;;;;;;26.40;24.00;;;23.10;1.00;;;;;;5038165;28;20504;-81
2022/09/25 10:38:40;;;;;;;15.90;14.50;;;23.40;1.00;;;;;;5045389;28;20468;-79
2022/09/25 10:41:12;;;;;;;15.37;13.97;;;24.20;1.00;;;;;;5044939;28;20419;-78
2022/09/25 10:43:54;;;;;;;13.17;11.83;;;24.70;1.00;;;;;;5041696;28;20437;-79
2022/09/25 10:52:18;;;;;;;13.30;12.10;;;25.30;1.00;;;;;;5047120;28;20441;-76
2022/09/25 10:54:51;;;;;;;13.77;12.60;;;25.60;1.00;;;;;;5034807;28;20902;-78
2022/09/25 10:57:37;;;;;;;15.70;14.40;;;26.40;1.00;;;;;;5051590;28;21294;-77
2022/09/25 11:00:20;;;;;;;13.60;12.50;;;27.70;1.00;;;;;;5042869;28;20512;-81
2022/09/25 11:02:52;;;;;;;13.80;12.50;;;29.00;1.00;;;;;;5052815;28;20436;-82
2022/09/25 11:05:27;;;;;;;14.27;13.10;;;29.30;1.00;;;;;;5042638;28;20467;-83
2022/09/25 11:07:59;;;;;;;14.17;13.07;;;28.90;1.00;;;;;;5047411;28;20484;-81
2022/09/25 11:10:30;;;;;;;14.30;13.20;;;28.30;1.00;;;;;;5058582;28;20985;-80
2022/09/25 11:13:04;;;;;;;13.40;12.20;;;28.00;1.00;;;;;;5042536;28;20479;-81
2022/09/25 11:15:37;;;;;;;14.70;13.50;;;27.80;1.00;;;;;;5052944;28;20508;-80
2022/09/25 11:18:27;;;;;;;13.20;12.20;;;28.00;1.00;;;;;;5032574;28;20449;-78
2022/09/25 11:21:04;;;;;;;13.43;12.13;;;28.00;1.00;;;;;;5023620;28;20484;-78
2022/09/25 11:23:41;;;;;;;14.10;12.80;;;28.00;1.00;;;;;;5042721;28;20514;-75
2022/09/25 11:26:17;;;;;;;14.17;12.90;;;27.70;1.00;;;;;;5039613;28;20467;-79
2022/09/25 11:29:04;;;;;;;14.73;13.43;;;27.30;1.00;;;;;;5044239;28;20450;-78
2022/09/25 11:31:37;;;;;;;13.60;12.50;;;27.60;1.00;;;;;;5039792;28;20467;-78
2022/09/25 11:34:20;;;;;;;14.00;12.90;;;28.40;1.00;;;;;;5048130;28;24014;-79
2022/09/25 11:36:57;;;;;;;14.33;13.13;;;29.20;1.00;;;;;;5011122;28;20428;-79
2022/09/25 11:42:38;;;;;;;13.03;12.00;;;29.60;1.00;;;;;;4948135;28;20472;-79
2022/09/25 11:45:20;;;;;;;12.40;11.30;;;28.60;1.00;;;;;;4960206;28;20460;-78
2022/09/25 11:48:00;;;;;;;15.63;14.20;;;27.40;1.00;;;;;;5012674;28;20441;-78
2022/09/25 11:50:38;;;;;;;14.13;12.83;;;25.60;1.00;;;;;;5054724;28;20506;-80
2022/09/25 11:53:22;;;;;;;14.00;12.80;;;25.20;1.00;;;;;;5037299;28;20461;-81
2022/09/25 11:56:07;;;;;;;13.67;12.47;;;25.00;1.00;;;;;;5047775;28;20457;-79
2022/09/25 11:59:01;;;;;;;13.53;12.33;;;25.10;1.00;;;;;;5047715;28;20456;-79
2022/09/25 12:01:39;;;;;;;11.87;10.87;;;25.60;1.00;;;;;;5050995;28;20412;-80
2022/09/25 12:04:41;;;;;;;12.97;11.87;;;26.00;1.00;;;;;;5052574;28;21008;-80
2022/09/25 12:07:38;;;;;;;13.87;12.50;;;26.10;1.00;;;;;;5055294;28;20411;-80
2022/09/25 12:10:26;;;;;;;13.33;12.20;;;25.90;1.00;;;;;;5056679;28;20548;-80
2022/09/25 12:13:04;;;;;;;13.43;12.33;;;25.60;1.00;;;;;;5059429;28;20809;-79
2022/09/25 12:15:51;;;;;;;14.50;13.17;;;25.10;1.00;;;;;;5052461;28;20450;-81
2022/09/25 12:18:53;;;;;;;13.50;12.40;;;24.60;1.00;;;;;;5054799;28;20432;-80
2022/09/25 12:21:33;;;;;;;13.80;12.00;;;24.10;1.00;;;;;;5055265;28;20463;-80
2022/09/25 12:24:11;;;;;;;12.63;11.53;;;23.60;1.00;;;;;;5050446;28;20478;-80
2022/09/25 12:26:52;;;;;;;11.60;10.60;;;23.70;1.00;;;;;;5053900;28;20475;-81
2022/09/25 12:29:49;;;;;;;13.10;12.00;;;25.80;1.00;;;;;;5055222;28;20452;-82
2022/09/25 12:32:35;;;;;;;13.83;12.47;;;29.50;1.00;;;;;;5059460;28;20443;-82
2022/09/25 12:35:21;;;;;;;12.33;11.23;;;31.60;1.00;;;;;;5054858;28;20457;-80
2022/09/25 12:37:54;;;;;;;12.60;11.60;;;32.00;1.00;;;;;;5056438;28;20456;-82
2022/09/25 12:40:31;;;;;;;12.93;11.70;;;33.30;1.00;;;;;;5061042;28;20622;-81
2022/09/25 12:43:03;;;;;;;12.50;11.50;;;34.20;1.00;;;;;;5053100;28;20443;-80
2022/09/25 12:45:36;;;;;;;11.83;10.90;;;34.30;1.00;;;;;;5049143;28;20956;-81
2022/09/25 12:48:11;;;;;;;10.93;10.03;;;34.20;1.00;;;;;;5045873;28;20464;-81
2022/09/25 12:50:46;;;;;;;10.97;10.07;;;32.50;1.00;;;;;;5050019;28;20459;-81
2022/09/25 12:53:29;;;;;;;10.73;9.67;;;31.00;1.00;;;;;;5048647;28;20452;-81
2022/09/25 12:56:04;;;;;;;10.50;9.60;;;29.90;1.00;;;;;;5049520;28;20491;-80
2022/09/25 12:58:45;;;;;;;10.27;9.47;;;28.90;1.00;;;;;;5052127;28;20447;-82
2022/09/25 13:01:19;;;;;;;10.57;9.77;;;28.70;1.00;;;;;;5050295;28;20468;-81
2022/09/25 13:03:53;;;;;;;9.97;9.17;;;28.40;1.00;;;;;;5044244;28;20464;-81
2022/09/25 13:06:28;;;;;;;10.83;9.93;;;27.80;1.00;;;;;;5049643;28;20543;-82
2022/09/25 13:09:01;;;;;;;9.67;8.93;;;27.20;1.00;;;;;;5048238;28;20437;-81
2022/09/25 13:11:37;;;;;;;9.30;8.50;;;26.60;1.00;;;;;;5051740;28;20449;-82
2022/09/25 13:14:20;;;;;;;9.57;8.67;;;26.00;1.00;;;;;;5049299;28;20460;-81
2022/09/25 13:16:47;;;;;;;10.53;9.63;;;25.40;1.00;;;;;;5045756;28;20472;-82
2022/09/25 13:19:25;;;;;;;9.23;8.53;;;25.10;1.00;;;;;;5051638;28;20555;-82
2022/09/25 13:22:04;;;;;;;8.13;7.43;;;24.90;1.00;;;;;;5045478;28;20488;-82
2022/09/25 13:24:38;;;;;;;8.43;7.73;;;24.20;1.00;;;;;;5048525;28;20436;-82
2022/09/25 13:27:09;;;;;;;8.63;7.73;;;24.00;1.00;;;;;;5040368;28;20476;-81
2022/09/25 13:29:40;;;;;;;8.40;7.70;;;23.80;1.00;;;;;;5046905;28;20483;-81